createdAt,value
2022-09-07T00:01:30.408Z,100.00
2022-09-07T00:06:32.065Z,100.00
2022-09-07T00:11:33.547Z,100.00
2022-09-07T00:16:35.215Z,100.00
2022-09-07T00:21:37.274Z,100.00
2022-09-07T00:26:38.709Z,100.00
2022-09-07T00:31:42.162Z,100.00
2022-09-07T00:36:43.663Z,100.00
2022-09-07T00:41:45.085Z,100.00
2022-09-07T00:46:46.584Z,100.00
2022-09-07T00:51:52.694Z,100.00
2022-09-07T00:56:54.255Z,100.00
2022-09-07T01:01:55.947Z,100.00
2022-09-07T01:06:57.942Z,100.00
2022-09-07T01:12:00.996Z,100.00
2022-09-07T01:17:29.746Z,100.00
2022-09-07T01:22:57.436Z,100.00
2022-09-07T01:28:08.402Z,100.00
2022-09-07T01:33:37.342Z,100.00
2022-09-07T01:38:48.624Z,100.00
2022-09-07T01:43:50.027Z,100.00
2022-09-07T01:48:54.211Z,100.00
2022-09-07T01:54:00.882Z,100.00
2022-09-07T01:59:36.338Z,100.00
2022-09-07T02:04:40.273Z,100.00
2022-09-07T02:09:53.764Z,100.00
2022-09-07T02:15:07.049Z,100.00
2022-09-07T02:20:22.147Z,100.00
2022-09-07T02:25:29.231Z,100.00
2022-09-07T02:30:30.783Z,100.00
2022-09-07T02:35:32.992Z,100.00
2022-09-07T02:40:34.931Z,100.00
2022-09-07T02:46:11.908Z,100.00
2022-09-07T02:51:28.595Z,100.00
2022-09-07T02:56:50.280Z,100.00
2022-09-07T03:02:26.177Z,100.00
2022-09-07T03:07:36.059Z,100.00
2022-09-07T03:12:44.060Z,100.00
2022-09-07T03:17:45.910Z,100.00
2022-09-07T03:22:48.747Z,100.00
2022-09-07T03:27:50.154Z,100.00
2022-09-07T03:32:51.610Z,100.00
2022-09-07T03:37:53.170Z,100.00
2022-09-07T03:42:54.770Z,100.00
2022-09-07T03:47:56.306Z,100.00
2022-09-07T03:52:57.735Z,100.00
2022-09-07T03:57:59.174Z,100.00
2022-09-07T04:03:00.884Z,100.00
2022-09-07T04:08:04.125Z,100.00
2022-09-07T04:13:17.458Z,100.00
2022-09-07T04:18:22.234Z,100.00
2022-09-07T04:23:23.711Z,100.00
2022-09-07T04:28:25.609Z,100.00
2022-09-07T04:33:27.216Z,100.00
2022-09-07T04:38:28.955Z,100.00
2022-09-07T04:43:41.206Z,100.00
2022-09-07T04:48:51.482Z,100.00
2022-09-07T04:53:55.087Z,100.00
2022-09-07T04:59:10.922Z,100.00
2022-09-07T05:04:33.666Z,100.00
2022-09-07T05:09:53.641Z,100.00
2022-09-07T05:14:55.120Z,100.00
2022-09-07T05:19:57.852Z,100.00
2022-09-07T05:24:59.361Z,100.00
2022-09-07T05:30:00.980Z,100.00
2022-09-07T05:35:02.942Z,100.00
2022-09-07T05:40:05.749Z,100.00
2022-09-07T05:45:08.068Z,100.00
2022-09-07T05:50:10.084Z,100.00
2022-09-07T05:55:29.268Z,100.00
2022-09-07T06:00:32.001Z,100.00
2022-09-07T06:05:33.458Z,100.00
2022-09-07T06:10:45.699Z,100.00
2022-09-07T06:15:47.285Z,100.00
2022-09-07T06:20:48.775Z,100.00
2022-09-07T06:25:50.440Z,100.00
2022-09-07T06:30:51.907Z,100.00
2022-09-07T06:36:01.897Z,100.00
2022-09-07T06:51:52.208Z,100.00
2022-09-07T06:56:53.658Z,100.00
2022-09-07T07:01:55.150Z,100.00
2022-09-07T07:06:56.651Z,100.00
2022-09-07T07:11:58.162Z,100.00
2022-09-07T07:16:59.559Z,100.00
2022-09-07T07:22:14.273Z,100.00
2022-09-07T07:27:20.036Z,100.00
2022-09-07T07:32:22.697Z,100.00
2022-09-07T07:37:28.059Z,99.14
2022-09-07T07:42:30.249Z,95.03
2022-09-07T07:47:31.988Z,88.86
2022-09-07T07:57:59.454Z,85.41
2022-09-07T08:03:01.502Z,83.23
2022-09-07T08:08:03.935Z,80.40
2022-09-07T08:13:07.424Z,80.16
2022-09-07T08:18:08.962Z,76.89
2022-09-07T08:24:03.432Z,72.47
2022-09-07T08:29:09.978Z,72.59
2022-09-07T08:34:15.290Z,69.00
2022-09-07T08:40:16.868Z,65.27
2022-09-07T08:45:00.631Z,65.50
2022-09-07T08:50:23.011Z,63.75
2022-09-07T08:55:35.873Z,65.50
2022-09-07T09:06:53.559Z,66.96
2022-09-07T09:12:06.737Z,63.00
2022-09-07T09:17:38.654Z,60.30
2022-09-07T09:22:52.422Z,55.17
2022-09-07T09:56:46.789Z,50.67
2022-09-07T10:13:35.707Z,46.42
2022-09-07T10:37:13.902Z,43.86
2022-09-07T10:43:20.230Z,50.79
2022-09-07T10:48:31.225Z,51.37
2022-09-07T11:05:05.851Z,44.42
2022-09-07T11:10:30.964Z,43.04
2022-09-07T11:15:44.319Z,48.90
2022-09-07T11:20:50.612Z,50.47
2022-09-07T11:43:53.489Z,52.15
2022-09-07T11:48:56.673Z,54.06
2022-09-07T12:00:08.157Z,57.10
2022-09-07T12:05:20.094Z,53.65
2022-09-07T12:10:54.480Z,51.11
2022-09-07T12:16:37.532Z,54.21
2022-09-07T12:22:00.800Z,56.19
2022-09-07T12:27:05.460Z,57.97
2022-09-07T12:37:58.422Z,54.30
2022-09-07T12:43:42.753Z,44.44
2022-09-07T12:49:39.147Z,39.38
2022-09-07T13:35:49.187Z,35.10
2022-09-07T13:59:45.066Z,36.04
2022-09-07T14:04:54.240Z,37.06
2022-09-07T14:10:19.191Z,36.67
2022-09-07T14:15:27.994Z,38.36
2022-09-07T14:20:40.963Z,37.86
2022-09-07T14:31:09.549Z,39.04
2022-09-07T14:36:36.300Z,39.78
2022-09-07T14:41:36.506Z,40.51
2022-09-07T14:46:54.626Z,40.45
2022-09-07T14:53:33.268Z,44.88
2022-09-07T14:58:54.280Z,43.84
2022-09-07T15:03:59.237Z,43.03
2022-09-07T15:09:19.508Z,43.10
2022-09-07T15:14:21.580Z,43.50
2022-09-07T15:19:34.341Z,41.53
2022-09-07T15:24:35.845Z,41.97
2022-09-07T15:29:39.729Z,43.92
2022-09-07T15:34:41.118Z,42.44
2022-09-07T15:39:43.580Z,44.43
2022-09-07T15:44:45.119Z,42.97
2022-09-07T15:49:50.517Z,46.23
2022-09-07T15:54:52.893Z,44.61
2022-09-07T15:59:54.380Z,47.74
2022-09-07T16:04:56.081Z,48.40
2022-09-07T16:10:02.175Z,49.66
2022-09-07T16:15:05.854Z,51.06
2022-09-07T16:20:07.765Z,50.97
2022-09-07T16:25:09.283Z,49.56
2022-09-07T16:30:12.351Z,51.51
2022-09-07T16:35:14.983Z,51.63
2022-09-07T16:40:17.219Z,52.89
2022-09-07T16:50:51.000Z,50.51
2022-09-07T16:55:52.570Z,52.14
2022-09-07T17:00:54.024Z,52.82
2022-09-07T17:05:55.526Z,52.33
2022-09-07T17:11:01.390Z,52.34
2022-09-07T17:16:08.060Z,53.12
2022-09-07T17:21:09.891Z,52.73
2022-09-07T17:26:16.461Z,55.59
2022-09-07T17:36:42.801Z,57.95
2022-09-07T17:41:44.915Z,56.96
2022-09-07T17:46:46.506Z,58.87
2022-09-07T17:51:48.583Z,60.14
2022-09-07T17:56:52.964Z,61.50
2022-09-07T18:01:58.086Z,63.29
2022-09-07T18:12:16.857Z,64.52
2022-09-07T18:29:08.432Z,68.74
2022-09-07T18:34:15.155Z,69.80
2022-09-07T18:39:16.997Z,71.36
2022-09-07T18:49:40.030Z,72.87
2022-09-07T18:54:41.642Z,73.31
2022-09-07T18:59:43.214Z,74.47
2022-09-07T19:10:07.047Z,77.38
2022-09-07T19:15:09.813Z,78.84
2022-09-07T19:20:11.819Z,78.73
2022-09-07T19:25:13.211Z,80.09
2022-09-07T19:30:14.732Z,80.35
2022-09-07T19:35:16.198Z,81.25
2022-09-07T19:40:19.424Z,81.86
2022-09-07T19:45:21.237Z,82.56
2022-09-07T19:50:22.892Z,83.44
2022-09-07T19:55:50.666Z,84.38
2022-09-07T20:00:52.147Z,85.08
2022-09-07T20:05:53.681Z,85.63
2022-09-07T20:11:00.474Z,85.07
2022-09-07T20:16:03.523Z,85.04
2022-09-07T20:21:06.512Z,84.67
2022-09-07T20:26:10.260Z,85.28
2022-09-07T20:31:16.667Z,84.77
2022-09-07T20:36:22.164Z,85.86
2022-09-07T20:41:26.593Z,87.44
2022-09-07T20:46:29.316Z,87.74
2022-09-07T20:51:31.533Z,87.96
2022-09-07T20:56:33.004Z,87.90
2022-09-07T21:01:35.042Z,88.70
2022-09-07T21:06:36.687Z,88.04
2022-09-07T21:11:38.145Z,85.51
2022-09-07T21:16:39.839Z,86.64
2022-09-07T21:21:42.758Z,87.37
2022-09-07T21:26:44.493Z,87.02
2022-09-07T21:31:46.775Z,86.25
2022-09-07T21:36:48.413Z,87.36
2022-09-07T21:41:49.868Z,86.62
2022-09-07T21:46:51.330Z,85.19
2022-09-07T21:51:52.811Z,86.53
2022-09-07T21:56:55.012Z,85.73
2022-09-07T22:01:59.740Z,84.02
2022-09-07T22:07:01.990Z,83.66
2022-09-07T22:12:03.880Z,83.33
2022-09-07T22:17:10.834Z,83.42
2022-09-07T22:22:16.029Z,82.19
2022-09-07T22:27:21.624Z,81.96
2022-09-07T22:32:26.106Z,82.33
2022-09-07T22:37:31.605Z,82.27
2022-09-07T22:42:40.697Z,82.76
2022-09-07T22:47:47.507Z,82.69
2022-09-07T22:52:51.137Z,83.24
2022-09-07T22:57:57.516Z,83.63
2022-09-07T23:02:59.370Z,83.22
2022-09-07T23:08:01.524Z,83.67
2022-09-07T23:13:08.095Z,84.45
2022-09-07T23:18:18.183Z,84.24
2022-09-07T23:23:20.601Z,84.11
2022-09-07T23:28:27.474Z,84.75
2022-09-07T23:33:30.700Z,84.63
2022-09-07T23:38:35.975Z,85.37
2022-09-07T23:43:39.462Z,85.89
2022-09-07T23:48:44.620Z,85.77
2022-09-07T23:53:51.923Z,86.37
2022-09-07T23:58:53.757Z,86.28
